Terminal Aerodrome Forecast
Issued by NWS

Home | Current Version | Previous Version | Text Only | Print | Product List | Glossary On
Versions: 1 2 3 4 5 6 7 8 9 10 11 12 13 14 15
583
FTUS43 KMPX 241139
TAFRNH
TAF
KRNH 241139Z 2412/2512 03007KT P6SM BKN050
     FM250000 05005KT P6SM SCT060
     FM251000 VRB03KT P6SM FEW080=

USA.gov is the U.S. government's official web portal to all federal, state and local government web resources and services.